Time;durP1;ratioP1;P1;durP2;ratioP2;P2;SDS_P1;SDS_P2;PMS_P1;PMS_P2;Temp;Humidity;BMP_temperature;BMP_pressure;BME280_temperature;BME280_humidity;BME280_pressure;Samples;Min_cycle;Max_cycle;Signal;HPM_P1;HPM_P2
2023/08/19 00:01:38;;;;;;;15.50;11.00;;;;;;;22.30;100.00;100353.89;178151;1263;45921;-89
2023/08/19 00:05:41;;;;;;;13.00;10.30;;;;;;;22.25;100.00;100352.79;178403;1260;46138;-88
2023/08/19 00:09:44;;;;;;;11.80;10.70;;;;;;;22.18;100.00;100347.54;178269;1263;59773;-88
2023/08/19 00:13:48;;;;;;;11.60;10.20;;;;;;;22.09;100.00;100345.04;178015;1259;46087;-88
2023/08/19 00:17:51;;;;;;;13.20;10.80;;;;;;;22.07;100.00;100351.81;178021;1260;45955;-88
2023/08/19 00:21:54;;;;;;;13.80;11.20;;;;;;;22.06;100.00;100344.15;178143;1260;46459;-88
2023/08/19 00:25:58;;;;;;;13.90;10.30;;;;;;;22.02;100.00;100344.75;178122;1259;46051;-88
2023/08/19 00:30:01;;;;;;;14.30;12.00;;;;;;;21.94;100.00;100348.96;178143;1259;58270;-88
2023/08/19 00:34:05;;;;;;;15.70;11.90;;;;;;;21.87;100.00;100352.59;177878;1263;46481;-88
2023/08/19 00:38:09;;;;;;;13.20;11.90;;;;;;;21.81;100.00;100354.92;178122;1259;46095;-88
2023/08/19 00:42:12;;;;;;;13.10;11.80;;;;;;;21.80;100.00;100358.30;178793;1259;46000;-88
2023/08/19 00:46:16;;;;;;;12.90;11.40;;;;;;;21.82;100.00;100355.73;178496;1259;46083;-88
2023/08/19 00:50:20;;;;;;;12.20;10.90;;;;;;;21.85;100.00;100350.70;178143;1259;58669;-87
2023/08/19 00:54:24;;;;;;;16.00;12.00;;;;;;;21.87;100.00;100348.50;178680;1259;44854;-88
2023/08/19 00:58:27;;;;;;;14.90;11.60;;;;;;;21.86;100.00;100345.13;178251;1263;46092;-88
2023/08/19 01:02:31;;;;;;;15.90;10.90;;;;;;;21.81;100.00;100346.80;178223;1259;46124;-88
2023/08/19 01:06:42;;;;;;;14.00;12.00;;;;;;;21.83;100.00;100348.23;178325;1259;46006;-87
2023/08/19 01:10:56;;;;;;;14.60;11.30;;;;;;;21.83;100.00;100346.94;178334;1259;58056;-87
2023/08/19 01:15:22;;;;;;;18.10;14.40;;;;;;;21.81;100.00;100352.44;178169;1259;46140;-88
2023/08/19 01:19:31;;;;;;;;;;;;;;;21.78;100.00;100350.81;178287;1259;46136;-88
2023/08/19 01:23:44;;;;;;;16.10;14.30;;;;;;;21.77;100.00;100345.14;178718;1260;88377;-69
2023/08/19 01:27:49;;;;;;;16.00;14.40;;;;;;;21.71;100.00;100343.23;179263;1257;45974;-90
2023/08/19 01:31:53;;;;;;;14.20;12.00;;;;;;;21.61;100.00;100341.10;179135;1257;59526;-90
2023/08/19 01:36:15;;;;;;;13.60;12.30;;;;;;;21.49;100.00;100339.34;178797;1257;47283;-89
2023/08/19 01:40:22;;;;;;;13.40;11.00;;;;;;;21.49;100.00;100331.77;179095;1257;45888;-90
2023/08/19 01:44:26;;;;;;;13.60;11.30;;;;;;;21.45;100.00;100331.33;178590;1257;47441;-90
2023/08/19 01:48:29;;;;;;;13.80;12.00;;;;;;;21.40;100.00;100332.20;178333;1257;44709;-90
2023/08/19 01:52:34;;;;;;;12.50;11.20;;;;;;;21.34;100.00;100333.65;178087;1259;60532;-89
2023/08/19 01:56:37;;;;;;;15.50;12.30;;;;;;;21.18;100.00;100334.40;178352;1257;46413;-90
2023/08/19 02:00:41;;;;;;;14.60;12.50;;;;;;;21.09;100.00;100340.77;178641;1256;46067;-90
2023/08/19 02:04:45;;;;;;;12.40;11.10;;;;;;;20.96;100.00;100341.82;178720;1257;46058;-89
2023/08/19 02:08:48;;;;;;;15.30;13.60;;;;;;;20.89;100.00;100334.84;178299;1257;46069;-90
2023/08/19 02:12:51;;;;;;;18.10;16.00;;;;;;;20.84;100.00;100338.41;178235;1257;58063;-89
2023/08/19 02:16:55;;;;;;;22.50;14.40;;;;;;;20.66;100.00;100330.88;178136;1258;44269;-89
2023/08/19 02:20:59;;;;;;;17.30;13.90;;;;;;;20.51;100.00;100327.30;177892;1257;46064;-89
2023/08/19 02:25:02;;;;;;;18.70;15.50;;;;;;;20.50;100.00;100333.23;178032;1258;46105;-89
2023/08/19 02:29:05;;;;;;;18.50;12.70;;;;;;;20.45;100.00;100338.95;178025;1257;45944;-89
2023/08/19 02:33:09;;;;;;;16.90;13.90;;;;;;;20.38;100.00;100341.72;177745;1257;58227;-89
2023/08/19 02:37:14;;;;;;;24.40;16.10;;;;;;;20.39;100.00;100332.60;177733;1257;46029;-89
2023/08/19 02:41:17;;;;;;;16.90;13.80;;;;;;;20.35;100.00;100338.10;178089;1257;45888;-89
2023/08/19 02:45:21;;;;;;;14.70;13.20;;;;;;;20.34;100.00;100331.02;177678;1260;46163;-90
2023/08/19 02:49:24;;;;;;;16.10;13.50;;;;;;;20.31;100.00;100330.17;177920;1258;45983;-88
2023/08/19 02:53:28;;;;;;;20.80;15.00;;;;;;;20.28;100.00;100325.13;178060;1258;58219;-90
2023/08/19 02:57:32;;;;;;;21.40;17.50;;;;;;;20.33;100.00;100324.68;178174;1259;46050;-89
2023/08/19 03:01:36;;;;;;;26.50;16.60;;;;;;;20.32;100.00;100321.89;178106;1257;45718;-89
2023/08/19 03:05:40;;;;;;;18.50;16.50;;;;;;;20.34;100.00;100324.44;177800;1257;46098;-90
2023/08/19 03:09:44;;;;;;;16.60;14.10;;;;;;;20.42;100.00;100328.48;177833;1259;46076;-89
2023/08/19 03:13:47;;;;;;;21.80;16.50;;;;;;;20.50;100.00;100328.95;177992;1258;58225;-89
2023/08/19 03:17:51;;;;;;;21.50;17.30;;;;;;;20.57;100.00;100336.30;177418;1260;46228;-89
2023/08/19 03:21:54;;;;;;;20.90;18.30;;;;;;;20.64;100.00;100342.74;177520;1259;46130;-89
2023/08/19 03:25:58;;;;;;;26.00;19.90;;;;;;;20.64;100.00;100350.48;177587;1257;46000;-89
2023/08/19 03:30:04;;;;;;;24.50;21.60;;;;;;;20.60;100.00;100354.13;177355;1259;45981;-88
2023/08/19 03:34:07;;;;;;;23.20;18.90;;;;;;;20.61;100.00;100353.30;177500;1256;59565;-89
2023/08/19 03:38:13;;;;;;;23.70;19.70;;;;;;;20.51;100.00;100354.58;177618;1257;46027;-88
2023/08/19 03:42:17;;;;;;;18.90;15.20;;;;;;;20.45;100.00;100362.14;177888;1258;44615;-88
2023/08/19 03:46:21;;;;;;;22.40;18.00;;;;;;;20.37;100.00;100368.52;178090;1258;44155;-89
2023/08/19 03:50:24;;;;;;;25.00;19.20;;;;;;;20.31;100.00;100367.50;177919;1257;46090;-89
2023/08/19 03:54:27;;;;;;;25.50;20.40;;;;;;;20.35;100.00;100367.06;178466;1261;59409;-86
2023/08/19 03:58:30;;;;;;;18.00;16.10;;;;;;;20.46;100.00;100360.27;178328;1259;46114;-86
2023/08/19 04:02:34;;;;;;;16.90;14.20;;;;;;;20.55;100.00;100365.66;177975;1260;44747;-86
2023/08/19 04:06:37;;;;;;;30.30;15.90;;;;;;;20.56;100.00;100371.17;177818;1261;46009;-86
2023/08/19 04:10:41;;;;;;;20.90;18.60;;;;;;;20.53;100.00;100372.38;178538;1262;46147;-86
2023/08/19 04:14:44;;;;;;;20.70;15.10;;;;;;;20.51;100.00;100372.36;178057;1263;59946;-86
2023/08/19 04:18:47;;;;;;;18.30;15.40;;;;;;;20.60;100.00;100372.84;178178;1259;46013;-86
2023/08/19 04:22:50;;;;;;;27.50;20.00;;;;;;;20.79;100.00;100370.91;178117;1263;46061;-86
2023/08/19 04:26:53;;;;;;;31.90;18.90;;;;;;;20.95;100.00;100374.92;177893;1259;45928;-86
2023/08/19 04:31:08;;;;;;;23.30;15.70;;;;;;;20.90;100.00;100376.07;178147;1259;46431;-86
2023/08/19 04:35:12;;;;;;;23.70;16.10;;;;;;;20.95;100.00;100377.66;178445;1259;59008;-87
2023/08/19 04:39:15;;;;;;;24.60;18.40;;;;;;;21.05;100.00;100376.46;178026;1259;46123;-86
2023/08/19 04:43:19;;;;;;;43.90;23.90;;;;;;;21.24;100.00;100378.80;178170;1259;45370;-86
2023/08/19 04:47:22;;;;;;;22.60;20.20;;;;;;;21.59;100.00;100374.70;178576;1259;46130;-88
2023/08/19 04:51:25;;;;;;;20.80;14.60;;;;;;;22.16;100.00;100379.77;178280;1259;46190;-88
2023/08/19 04:55:29;;;;;;;13.80;12.40;;;;;;;22.74;100.00;100374.79;178505;1259;58379;-88
2023/08/19 04:59:33;;;;;;;13.10;11.70;;;;;;;23.32;100.00;100373.77;178867;1259;46120;-87
2023/08/19 05:03:37;;;;;;;13.50;12.20;;;;;;;23.99;100.00;100372.02;179201;1259;46171;-87
2023/08/19 05:07:41;;;;;;;14.60;12.50;;;;;;;24.61;100.00;100376.31;178990;1259;45961;-88
2023/08/19 05:11:44;;;;;;;19.70;17.00;;;;;;;25.41;100.00;100378.05;179091;1259;46081;-88
2023/08/19 05:15:49;;;;;;;19.00;16.30;;;;;;;25.99;100.00;100382.21;178812;1259;61139;-88
2023/08/19 05:19:56;;;;;;;20.10;17.80;;;;;;;26.44;100.00;100388.90;179337;1257;44583;-86
2023/08/19 05:24:00;;;;;;;20.60;18.10;;;;;;;26.92;99.37;100391.63;179406;1259;44772;-88
2023/08/19 05:28:04;;;;;;;18.60;16.60;;;;;;;27.35;95.85;100385.68;179764;1260;46017;-87
2023/08/19 05:32:07;;;;;;;19.30;13.80;;;;;;;27.79;93.82;100386.23;179293;1262;46136;-87
2023/08/19 05:36:11;;;;;;;17.50;15.60;;;;;;;28.09;91.07;100386.39;179311;1260;58231;-87
2023/08/19 05:40:15;;;;;;;18.40;16.40;;;;;;;28.45;90.14;100384.72;179396;1259;48316;-87
2023/08/19 05:44:19;;;;;;;23.40;14.20;;;;;;;28.76;86.51;100387.88;179416;1259;46198;-87
2023/08/19 05:48:22;;;;;;;25.00;17.50;;;;;;;28.88;84.60;100392.40;179463;1259;44742;-88
2023/08/19 05:52:26;;;;;;;18.30;15.60;;;;;;;28.90;83.85;100395.17;179204;1260;46075;-88
2023/08/19 05:56:29;;;;;;;15.40;13.80;;;;;;;28.90;83.21;100399.48;179610;1259;59541;-88
2023/08/19 06:00:33;;;;;;;16.50;12.50;;;;;;;28.88;83.60;100401.39;179332;1259;46004;-87
2023/08/19 06:04:37;;;;;;;16.60;14.20;;;;;;;28.92;82.52;100400.63;179388;1259;46733;-87
2023/08/19 06:08:41;;;;;;;15.70;11.90;;;;;;;28.95;83.11;100405.44;179642;1258;44702;-87
2023/08/19 06:12:44;;;;;;;15.20;13.60;;;;;;;29.09;82.80;100405.41;179466;1261;44633;-88
2023/08/19 06:16:48;;;;;;;11.80;10.30;;;;;;;29.39;82.12;100405.77;179519;1260;60065;-88
2023/08/19 06:20:53;;;;;;;13.90;11.50;;;;;;;29.44;82.20;100408.70;179537;1259;46109;-88
2023/08/19 06:24:56;;;;;;;15.00;11.90;;;;;;;29.78;80.89;100408.68;179611;1259;45905;-87
2023/08/19 06:29:04;;;;;;;12.40;11.00;;;;;;;30.12;78.38;100401.66;179563;1258;46016;-88
2023/08/19 06:33:09;;;;;;;12.50;10.60;;;;;;;30.27;77.30;100404.27;179407;1259;45979;-88
2023/08/19 06:37:26;;;;;;;12.30;10.00;;;;;;;30.30;77.65;100407.61;179444;1257;58205;-88
2023/08/19 06:41:36;;;;;;;14.20;9.90;;;;;;;30.42;76.48;100412.67;179567;1259;46024;-89
2023/08/19 06:45:40;;;;;;;12.40;10.90;;;;;;;30.45;75.69;100409.70;179679;1261;45292;-88
2023/08/19 06:49:44;;;;;;;10.40;9.00;;;;;;;30.56;75.39;100406.31;179629;1259;44650;-88
2023/08/19 06:53:48;;;;;;;9.40;8.00;;;;;;;30.69;74.98;100412.13;179590;1259;45829;-87
2023/08/19 06:58:08;;;;;;;9.60;8.20;;;;;;;30.70;75.79;100416.16;179702;1261;57155;-87
2023/08/19 07:02:15;;;;;;;9.00;8.10;;;;;;;30.41;75.44;100417.34;179545;1259;44197;-87
2023/08/19 07:06:20;;;;;;;10.10;9.10;;;;;;;30.43;76.54;100419.23;179710;1259;45945;-87
2023/08/19 07:10:25;;;;;;;13.30;9.60;;;;;;;30.59;77.69;100422.23;179696;1257;46253;-87
2023/08/19 07:14:29;;;;;;;10.70;8.90;;;;;;;30.60;76.66;100419.29;179576;1259;43444;-87
2023/08/19 07:18:50;;;;;;;11.30;8.70;;;;;;;30.55;78.94;100421.41;180156;1262;60375;-88
2023/08/19 07:22:55;;;;;;;8.90;8.00;;;;;;;30.64;77.56;100421.42;180005;1259;43791;-87
2023/08/19 07:27:03;;;;;;;16.70;12.20;;;;;;;30.72;77.99;100426.94;179971;1259;44447;-87
2023/08/19 07:31:11;;;;;;;16.30;14.20;;;;;;;30.81;75.34;100429.95;180351;1258;44060;-87
2023/08/19 07:35:15;;;;;;;15.50;13.10;;;;;;;30.76;75.94;100430.28;179835;1259;44842;-87
2023/08/19 07:39:20;;;;;;;15.00;13.40;;;;;;;30.82;76.98;100432.81;179668;1259;59348;-88
2023/08/19 07:43:24;;;;;;;16.40;13.00;;;;;;;30.87;74.65;100439.30;179713;1259;44895;-88
2023/08/19 07:47:28;;;;;;;20.00;13.70;;;;;;;30.95;75.25;100441.57;179973;1259;44397;-88
2023/08/19 07:51:32;;;;;;;21.90;15.60;;;;;;;31.11;73.80;100445.02;179803;1259;46125;-88
2023/08/19 07:55:35;;;;;;;13.80;10.20;;;;;;;31.12;72.57;100449.21;179598;1259;46053;-88
2023/08/19 07:59:39;;;;;;;11.10;8.50;;;;;;;31.26;74.23;100453.27;179631;1259;58128;-89
2023/08/19 08:03:45;;;;;;;10.50;9.10;;;;;;;31.55;73.06;100450.48;179672;1261;46129;-88
2023/08/19 08:07:49;;;;;;;10.50;8.50;;;;;;;31.67;72.76;100451.30;179521;1259;45919;-88
2023/08/19 08:11:54;;;;;;;10.50;7.90;;;;;;;31.66;72.86;100452.02;180013;1257;44674;-88
2023/08/19 08:16:00;;;;;;;12.20;8.90;;;;;;;31.80;72.31;100452.24;179648;1259;45900;-87
2023/08/19 08:20:04;;;;;;;9.40;8.40;;;;;;;31.96;72.08;100451.59;179564;1259;58879;-87
2023/08/19 08:24:15;;;;;;;16.60;8.50;;;;;;;32.06;69.88;100450.38;180646;1260;88344;-73
2023/08/19 08:28:19;;;;;;;7.30;6.30;;;;;;;32.02;69.21;100447.77;180653;1260;44394;-71
2023/08/19 08:32:24;;;;;;;11.40;7.50;;;;;;;31.91;69.86;100453.20;180505;1261;43662;-74
2023/08/19 08:36:28;;;;;;;9.20;6.90;;;;;;;31.85;70.80;100454.04;180460;1260;43541;-73
2023/08/19 08:40:34;;;;;;;10.50;7.30;;;;;;;31.75;71.74;100459.56;180125;1260;58287;-71
2023/08/19 08:44:37;;;;;;;7.20;6.50;;;;;;;31.57;70.84;100461.45;179987;1260;44531;-68
2023/08/19 08:48:41;;;;;;;8.20;7.40;;;;;;;31.44;71.89;100458.70;179971;1261;44586;-71
2023/08/19 08:52:46;;;;;;;9.70;8.30;;;;;;;31.39;71.39;100456.02;179860;1263;44797;-67
2023/08/19 08:56:54;;;;;;;;;;;;;;;31.33;72.93;100456.36;179965;1260;45992;-69
2023/08/19 09:01:02;;;;;;;10.30;7.30;;;;;;;31.36;74.38;100457.60;179871;1261;57497;-69
2023/08/19 09:05:13;;;;;;;9.00;7.80;;;;;;;31.50;73.26;100457.02;179564;1264;45853;-70
2023/08/19 09:09:16;;;;;;;8.30;7.00;;;;;;;31.57;73.00;100457.38;180481;1258;46029;-71
2023/08/19 09:13:24;;;;;;;9.50;7.30;;;;;;;31.64;72.74;100456.55;180036;1260;45923;-68
2023/08/19 09:17:27;;;;;;;7.40;6.40;;;;;;;31.78;72.91;100456.62;180124;1258;43805;-70
2023/08/19 09:21:32;;;;;;;7.50;6.70;;;;;;;31.94;73.08;100451.85;180248;1258;58514;-70
2023/08/19 09:26:04;;;;;;;8.10;7.30;;;;;;;32.01;71.33;100447.81;180635;1258;44576;-67
2023/08/19 09:30:08;;;;;;;7.10;5.80;;;;;;;31.87;70.43;100451.41;180382;1259;46093;-70
2023/08/19 09:34:16;;;;;;;7.00;6.30;;;;;;;31.87;73.37;100448.72;179849;1259;422364;-70
2023/08/19 09:38:21;;;;;;;7.80;6.60;;;;;;;31.95;71.78;100442.34;180255;1260;46027;-70
2023/08/19 09:42:26;;;;;;;7.60;6.70;;;;;;;31.95;69.85;100439.42;180137;1258;58450;-70
2023/08/19 09:46:34;;;;;;;7.60;5.90;;;;;;;31.93;70.47;100439.68;180276;1257;43588;-71
2023/08/19 09:50:45;;;;;;;7.10;5.50;;;;;;;31.92;69.74;100432.47;180446;1259;44451;-71
2023/08/19 09:54:53;;;;;;;10.90;6.30;;;;;;;31.88;71.92;100434.04;180254;1259;43741;-70
2023/08/19 09:58:57;;;;;;;9.70;7.20;;;;;;;31.91;70.83;100434.55;180202;1259;43512;-69
2023/08/19 10:03:05;;;;;;;6.90;6.20;;;;;;;32.03;71.93;100433.58;180245;1258;58940;-71
2023/08/19 10:07:16;;;;;;;7.10;6.20;;;;;;;32.00;69.63;100432.13;180287;1258;44972;-70
2023/08/19 10:11:22;;;;;;;6.50;5.90;;;;;;;31.94;68.90;100430.89;180195;1257;45994;-71
2023/08/19 10:15:43;;;;;;;6.70;6.20;;;;;;;31.99;70.76;100426.41;180293;1257;44903;-71
2023/08/19 10:24:18;;;;;;;7.00;5.40;;;;;;;32.10;68.79;100423.16;180369;1258;58656;-67
2023/08/19 10:28:28;;;;;;;7.10;5.50;;;;;;;32.05;64.65;100425.12;180304;1257;44523;-69
2023/08/19 10:32:33;;;;;;;7.00;5.30;;;;;;;32.06;66.40;100424.63;180415;1260;46013;-68
2023/08/19 10:36:37;;;;;;;7.30;6.20;;;;;;;32.16;64.36;100421.48;180473;1260;46074;-69
2023/08/19 10:40:40;;;;;;;11.20;5.40;;;;;;;32.31;65.18;100420.20;180380;1257;45887;-69
2023/08/19 10:44:52;;;;;;;5.90;5.10;;;;;;;32.39;64.58;100416.98;180387;1259;58373;-71
2023/08/19 10:48:56;;;;;;;8.90;5.00;;;;;;;32.51;64.08;100412.15;180775;1257;44516;-67
2023/08/19 10:58:25;;;;;;;6.10;4.90;;;;;;;32.49;63.12;100413.80;178281;1260;44362;-70
2023/08/19 11:02:29;;;;;;;11.40;6.80;;;;;;;32.54;61.24;100413.03;180551;1260;44171;-71
2023/08/19 11:07:03;;;;;;;7.70;6.30;;;;;;;32.59;62.16;100405.30;180528;1260;60403;-70
2023/08/19 11:11:07;;;;;;;6.50;5.80;;;;;;;32.70;61.64;100402.27;180626;1260;43610;-70
2023/08/19 11:15:24;;;;;;;6.30;5.40;;;;;;;32.78;62.07;100399.76;180741;1259;43694;-70
2023/08/19 11:33:53;;;;;;;7.10;5.00;;;;;;;33.08;63.96;100393.55;180813;1259;97100;-67
2023/08/19 11:37:56;;;;;;;6.80;5.50;;;;;;;33.29;63.64;100388.65;180539;1259;43508;-68
2023/08/19 11:42:15;;;;;;;6.50;5.10;;;;;;;33.40;63.08;100387.04;180630;1260;43628;-69
2023/08/19 11:46:19;;;;;;;5.70;5.20;;;;;;;33.40;61.85;100386.45;180946;1260;44843;-69
2023/08/19 11:50:22;;;;;;;6.20;5.30;;;;;;;33.50;60.05;100380.10;180714;1263;59053;-70
2023/08/19 11:54:26;;;;;;;5.00;4.50;;;;;;;33.61;60.32;100380.81;180812;1259;43508;-68
2023/08/19 11:58:51;;;;;;;5.20;4.70;;;;;;;33.66;58.87;100379.96;181488;1253;45058;-66
2023/08/19 12:03:26;;;;;;;7.50;4.70;;;;;;;33.75;58.84;100378.50;181495;1253;44378;31
2023/08/19 12:17:28;;;;;;;6.50;5.90;;;;;;;33.75;58.17;100370.50;181338;1256;44179;-89
2023/08/19 12:27:02;;;;;;;16.80;6.70;;;;;;;33.54;60.88;100375.30;181638;1250;90349;-68
2023/08/19 12:31:28;;;;;;;6.40;5.00;;;;;;;33.64;61.25;100378.27;181563;1257;90457;-69
2023/08/19 12:35:31;;;;;;;6.10;5.50;;;;;;;33.74;60.19;100371.73;181597;1259;58245;-67
2023/08/19 13:02:44;;;;;;;4.70;4.30;;;;;;;33.97;57.85;100368.48;181513;1260;44376;-90
2023/08/19 13:06:49;;;;;;;5.60;4.60;;;;;;;33.92;58.18;100365.87;181342;1259;43882;-88
2023/08/19 13:10:56;;;;;;;5.90;5.00;;;;;;;33.87;57.90;100364.78;181390;1260;43888;-89
2023/08/19 13:15:08;;;;;;;4.90;4.40;;;;;;;33.78;57.62;100364.43;181361;1259;43920;-90
2023/08/19 13:19:14;;;;;;;10.60;6.60;;;;;;;33.61;58.47;100369.55;181223;1259;60415;-91
2023/08/19 13:23:19;;;;;;;4.70;4.30;;;;;;;33.47;57.95;100367.36;181291;1259;44027;-89
2023/08/19 13:27:23;;;;;;;;;;;;;;;33.34;58.58;100365.77;181270;1259;44276;-90
2023/08/19 13:31:30;;;;;;;7.70;5.00;;;;;;;33.30;59.47;100366.15;181356;1259;43588;-90
2023/08/19 13:35:36;;;;;;;6.20;5.30;;;;;;;33.28;58.76;100372.05;181321;1256;43825;-91
2023/08/19 13:39:41;;;;;;;5.80;5.20;;;;;;;33.18;57.66;100366.16;181185;1260;59200;-90
2023/08/19 13:43:45;;;;;;;6.10;4.80;;;;;;;33.13;57.86;100366.27;181228;1259;43762;-90
2023/08/19 13:47:50;;;;;;;4.60;4.20;;;;;;;33.06;58.11;100367.27;181236;1260;43771;-89
2023/08/19 13:52:35;;;;;;;6.60;4.60;;;;;;;32.98;58.27;100361.63;181266;1259;44156;-91
2023/08/19 13:56:43;;;;;;;4.60;4.00;;;;;;;32.94;58.56;100353.20;181229;1259;44213;-90
2023/08/19 14:00:47;;;;;;;6.10;5.00;;;;;;;32.88;59.57;100357.16;181153;1260;58769;-90
2023/08/19 14:04:51;;;;;;;;;;;;;;;32.70;59.50;100356.84;181108;1260;43482;-90
2023/08/19 14:08:56;;;;;;;6.50;4.80;;;;;;;32.57;59.57;100354.73;181259;1259;43602;-90
2023/08/19 14:13:00;;;;;;;4.60;4.20;;;;;;;32.73;61.50;100356.02;181172;1259;43699;-90
2023/08/19 14:17:04;;;;;;;5.80;5.20;;;;;;;32.89;60.01;100350.48;181168;1259;43769;-90
2023/08/19 14:21:08;;;;;;;8.50;4.20;;;;;;;33.08;58.76;100353.77;181189;1260;58059;-89
2023/08/19 14:25:12;;;;;;;5.50;4.50;;;;;;;33.30;56.46;100356.38;181201;1260;43646;-90
2023/08/19 14:29:17;;;;;;;8.70;4.50;;;;;;;33.45;54.96;100348.84;181165;1259;43705;-90
2023/08/19 14:33:21;;;;;;;4.70;4.30;;;;;;;33.43;57.82;100340.95;181146;1260;43951;-90
2023/08/19 14:37:25;;;;;;;;;;;;;;;33.47;61.33;100342.06;181115;1260;43076;-90
2023/08/19 14:41:29;;;;;;;4.50;3.80;;;;;;;33.53;58.77;100342.23;181174;1259;58036;-90
2023/08/19 14:45:34;;;;;;;;;;;;;;;33.66;56.53;100341.75;181030;1260;43978;-90
2023/08/19 14:49:38;;;;;;;5.10;4.30;;;;;;;33.86;56.61;100342.40;181139;1261;43783;-91
2023/08/19 14:53:43;;;;;;;5.70;4.90;;;;;;;34.06;54.73;100341.80;181118;1259;43844;-91
2023/08/19 14:57:47;;;;;;;7.00;5.70;;;;;;;34.16;55.21;100341.30;181103;1260;43972;-90
2023/08/19 15:01:55;;;;;;;3.90;3.50;;;;;;;34.20;53.86;100337.33;181096;1260;59735;-90
2023/08/19 15:06:00;;;;;;;6.60;5.00;;;;;;;34.29;53.91;100340.20;181158;1260;43439;-91
2023/08/19 15:10:05;;;;;;;4.50;4.10;;;;;;;34.38;54.05;100337.45;181190;1261;44140;-90
2023/08/19 15:14:10;;;;;;;6.00;3.90;;;;;;;34.45;53.18;100334.54;181161;1260;43864;-90
2023/08/19 15:18:14;;;;;;;4.50;4.10;;;;;;;34.51;53.55;100336.67;181028;1260;43762;-89
2023/08/19 15:22:18;;;;;;;4.80;4.00;;;;;;;34.53;53.64;100339.36;181178;1261;59561;-91
2023/08/19 15:26:22;;;;;;;;;;;;;;;34.55;52.95;100339.89;181100;1261;43853;-91
2023/08/19 15:30:26;;;;;;;5.30;4.70;;;;;;;34.57;52.54;100336.13;181216;1260;45756;-91
2023/08/19 15:34:31;;;;;;;4.90;4.40;;;;;;;34.52;53.09;100335.17;181144;1259;43826;-90
2023/08/19 15:38:36;;;;;;;6.10;4.80;;;;;;;34.37;54.41;100328.12;181155;1260;43889;-90
2023/08/19 15:42:40;;;;;;;5.20;4.60;;;;;;;34.16;56.36;100325.27;181100;1261;57960;-90
2023/08/19 15:46:44;;;;;;;6.80;4.90;;;;;;;33.98;56.42;100324.01;181069;1260;44005;-90
2023/08/19 15:50:48;;;;;;;4.60;4.10;;;;;;;33.74;56.42;100331.96;181050;1261;43886;-90
2023/08/19 15:54:52;;;;;;;11.40;5.00;;;;;;;33.59;55.25;100329.19;180978;1261;44151;-91
2023/08/19 15:58:57;;;;;;;13.00;5.90;;;;;;;33.62;55.06;100328.36;181215;1260;43777;-90
2023/08/19 16:03:01;;;;;;;7.70;5.20;;;;;;;33.67;57.30;100323.11;181229;1260;58257;-90
2023/08/19 16:07:05;;;;;;;5.60;4.90;;;;;;;33.58;59.02;100330.19;181217;1259;43726;-90
2023/08/19 16:11:09;;;;;;;18.50;7.00;;;;;;;33.54;57.99;100325.51;181193;1260;43914;-91
2023/08/19 16:15:13;;;;;;;;;;;;;;;33.60;59.65;100328.25;181176;1261;43891;-90
2023/08/19 16:19:17;;;;;;;6.60;4.90;;;;;;;33.63;57.10;100333.38;181122;1260;43897;-90
2023/08/19 16:23:21;;;;;;;6.30;5.30;;;;;;;33.63;56.44;100336.08;181188;1260;57496;-90
2023/08/19 16:27:25;;;;;;;6.10;4.50;;;;;;;33.63;55.88;100333.70;181104;1260;43764;-91
2023/08/19 16:31:29;;;;;;;6.40;4.20;;;;;;;33.54;56.93;100336.37;181185;1260;43709;-90
2023/08/19 16:35:34;;;;;;;6.90;5.10;;;;;;;33.45;57.29;100341.73;181238;1259;44295;-91
2023/08/19 16:39:38;;;;;;;6.80;5.00;;;;;;;33.33;57.75;100344.60;181080;1261;43677;-90
2023/08/19 16:43:42;;;;;;;5.00;4.50;;;;;;;33.21;60.74;100344.98;181052;1263;59360;-90
2023/08/19 16:47:46;;;;;;;6.80;4.30;;;;;;;33.11;60.59;100350.90;181197;1260;43717;-90
2023/08/19 16:51:50;;;;;;;4.40;4.00;;;;;;;32.99;61.37;100353.76;181140;1259;45422;-90
2023/08/19 16:55:55;;;;;;;6.40;5.70;;;;;;;32.85;59.94;100356.76;181190;1261;46150;-90
2023/08/19 17:00:00;;;;;;;6.20;5.60;;;;;;;32.69;58.86;100354.15;181072;1260;44108;-90
2023/08/19 17:04:04;;;;;;;;;;;;;;;32.55;60.65;100360.23;181169;1260;58218;-90
2023/08/19 17:08:08;;;;;;;5.60;4.30;;;;;;;32.38;60.75;100360.45;181103;1260;43484;-90
2023/08/19 17:12:12;;;;;;;5.50;5.00;;;;;;;32.20;61.08;100359.00;181176;1262;43786;-90
2023/08/19 17:16:16;;;;;;;6.20;5.60;;;;;;;32.04;61.97;100362.23;181306;1260;43755;-90
2023/08/19 17:20:20;;;;;;;8.30;6.60;;;;;;;31.88;62.08;100366.94;181094;1260;44169;-90
2023/08/19 17:24:24;;;;;;;8.10;5.30;;;;;;;31.70;62.13;100369.77;181171;1261;59614;-90
2023/08/19 17:28:28;;;;;;;8.10;6.00;;;;;;;31.53;62.52;100365.22;181090;1260;43752;-90
2023/08/19 17:32:32;;;;;;;6.40;5.30;;;;;;;31.37;62.47;100371.54;181148;1260;45109;-91
2023/08/19 17:36:36;;;;;;;5.70;5.20;;;;;;;31.21;62.47;100374.04;181171;1260;44070;-90
2023/08/19 17:40:41;;;;;;;5.60;5.10;;;;;;;31.07;62.84;100377.31;181164;1260;43704;-90
2023/08/19 17:44:53;;;;;;;6.40;5.80;;;;;;;30.93;63.36;100379.13;181138;1259;59487;-91
2023/08/19 17:48:57;;;;;;;30.60;10.80;;;;;;;30.77;64.00;100379.29;181135;1261;43757;-91
2023/08/19 17:53:01;;;;;;;16.90;6.60;;;;;;;30.55;67.77;100382.92;181073;1260;43901;-91
2023/08/19 17:57:05;;;;;;;7.20;6.00;;;;;;;30.32;68.42;100384.48;181098;1260;43677;-91
2023/08/19 18:01:09;;;;;;;5.30;4.50;;;;;;;30.13;69.32;100389.45;181140;1261;43887;-90
2023/08/19 18:05:13;;;;;;;8.80;5.80;;;;;;;29.95;70.12;100393.90;181157;1261;59433;-89
2023/08/19 18:09:19;;;;;;;16.90;7.10;;;;;;;29.83;70.91;100399.75;181078;1260;43783;-90
2023/08/19 18:13:23;;;;;;;11.30;6.90;;;;;;;29.68;72.10;100399.21;181194;1259;43817;-90
2023/08/19 18:17:26;;;;;;;16.00;8.00;;;;;;;29.47;74.64;100402.83;181190;1260;43702;-90
2023/08/19 18:21:30;;;;;;;11.30;7.50;;;;;;;29.16;75.88;100411.56;181170;1261;43724;-90
2023/08/19 18:25:34;;;;;;;11.70;8.60;;;;;;;28.95;76.60;100414.03;181080;1260;59184;-90
2023/08/19 18:29:38;;;;;;;14.70;8.60;;;;;;;28.71;78.93;100418.80;181140;1260;43789;-90
2023/08/19 18:33:46;;;;;;;10.20;7.20;;;;;;;28.49;79.39;100423.48;181073;1260;46166;-90
2023/08/19 18:37:50;;;;;;;10.00;7.40;;;;;;;28.33;80.53;100428.17;181114;1261;43785;-90
2023/08/19 18:41:54;;;;;;;7.30;6.60;;;;;;;28.15;81.99;100429.65;181096;1261;44072;-90
2023/08/19 18:45:58;;;;;;;14.70;10.00;;;;;;;27.93;83.46;100437.88;181058;1259;59414;-90
2023/08/19 18:50:03;;;;;;;32.10;14.90;;;;;;;27.73;84.58;100444.14;181130;1261;44174;-90
2023/08/19 18:54:06;;;;;;;19.90;14.10;;;;;;;27.57;85.83;100448.61;181096;1260;44057;-90
2023/08/19 18:58:10;;;;;;;24.20;17.10;;;;;;;27.44;86.26;100451.39;181033;1259;43926;-90
2023/08/19 19:02:14;;;;;;;27.40;19.60;;;;;;;27.34;88.53;100460.79;181142;1261;44156;-90
2023/08/19 19:06:18;;;;;;;22.10;17.80;;;;;;;27.22;88.37;100456.73;180992;1260;59998;-90
2023/08/19 19:10:21;;;;;;;27.90;19.60;;;;;;;27.13;88.07;100462.81;181128;1260;43091;-90
2023/08/19 19:14:25;;;;;;;32.50;22.70;;;;;;;27.04;88.64;100463.25;181086;1261;43188;-90
2023/08/19 19:18:29;;;;;;;83.40;27.60;;;;;;;26.89;87.88;100463.00;181177;1262;44022;-90
2023/08/19 19:22:33;;;;;;;65.30;22.80;;;;;;;26.74;87.00;100464.06;181093;1261;43848;-89
2023/08/19 19:26:36;;;;;;;36.00;18.20;;;;;;;26.53;87.39;100466.20;181063;1260;59773;-90
2023/08/19 19:30:40;;;;;;;24.50;15.40;;;;;;;26.31;88.39;100469.65;181057;1260;43908;-89
2023/08/19 19:34:44;;;;;;;25.80;15.50;;;;;;;26.07;91.49;100474.84;181211;1260;44440;-90
2023/08/19 19:38:47;;;;;;;24.10;16.00;;;;;;;25.97;94.77;100475.77;181162;1259;44719;-90